Oro Valley, Arizona
Current Conditions -  °F | °C
As of 12:58 PM on Friday 24 Oct 2014 (Local Time) from KDMA Reporting Station
Clear Clear  
Wind Chill: 89°   Ceiling: Unl
Heat Index: 89°   Visibility: 10mi
Dew Point: 43°   Wind: 5mph
Humidity: 20%   Direction: 170°S
Pressure: 30.07"   Gusts: NA
Location:  32.4847°N, 110.899°W
Report Text: KDMA 241958Z AUTO 17004KT 10SM CLR 31/06 A3007 RMK AO2 SLP143 T03140062 $
Loading
Personal Weather Stations






























Interactive Weather Map
Tropical Storm Tracking
New forecast layout! Learn more

10-Day Weather Forecast

Advertisements
Track Severe Weather on mobile